Time;durP1;ratioP1;P1;durP2;ratioP2;P2;SDS_P1;SDS_P2;PMS_P1;PMS_P2;Temp;Humidity;BMP_temperature;BMP_pressure;BME280_temperature;BME280_humidity;BME280_pressure;Samples;Min_cycle;Max_cycle;Signal;HPM_P1;HPM_P2
2023/04/22 00:00:56;;;;;;;1.35;0.40;;;;;;;;;;5116159;27;20499;-46
2023/04/22 00:03:26;;;;;;;1.10;0.25;;;;;;;;;;5096033;27;20047;-46
2023/04/22 00:05:54;;;;;;;1.00;0.30;;;;;;;;;;5098379;27;20081;-46
2023/04/22 00:08:24;;;;;;;0.98;0.25;;;;;;;;;;5117862;27;20039;-47
2023/04/22 00:10:52;;;;;;;1.73;0.50;;;;;;;;;;5102939;27;20633;-46
2023/04/22 00:13:19;;;;;;;2.13;0.50;;;;;;;;;;5104423;27;20031;-47
2023/04/22 00:15:47;;;;;;;1.02;0.20;;;;;;;;;;5097216;27;20039;-47
2023/04/22 00:18:15;;;;;;;2.13;0.40;;;;;;;;;;5105953;27;20039;-45
2023/04/22 00:20:43;;;;;;;1.40;0.25;;;;;;;;;;5095314;27;20071;-47
2023/04/22 00:23:11;;;;;;;1.40;0.22;;;;;;;;;;5098131;27;20073;-45
2023/04/22 00:25:40;;;;;;;1.27;0.57;;;;;;;;;;5099378;27;20115;-49
2023/04/22 00:28:08;;;;;;;3.47;0.40;;;;;;;;;;5096527;27;20070;-45
2023/04/22 00:30:35;;;;;;;1.13;0.40;;;;;;;;;;5088900;27;20487;-45
2023/04/22 00:33:03;;;;;;;1.00;0.20;;;;;;;;;;5119157;27;20034;-45
2023/04/22 00:35:31;;;;;;;1.08;0.22;;;;;;;;;;5101004;27;20047;-46
2023/04/22 00:37:59;;;;;;;1.15;0.20;;;;;;;;;;5109167;27;20141;-45
2023/04/22 00:40:26;;;;;;;1.13;0.13;;;;;;;;;;5090716;28;20448;-47
2023/04/22 00:42:56;;;;;;;1.07;0.13;;;;;;;;;;5093688;27;20085;-45
2023/04/22 00:45:26;;;;;;;1.35;0.25;;;;;;;;;;5096438;27;20043;-48
2023/04/22 00:47:54;;;;;;;1.40;0.30;;;;;;;;;;5103774;27;20555;-46
2023/04/22 00:50:21;;;;;;;0.95;0.17;;;;;;;;;;5106162;27;20054;-48
2023/04/22 00:52:49;;;;;;;0.70;0.10;;;;;;;;;;5105718;27;20089;-46
2023/04/22 00:55:17;;;;;;;2.13;0.47;;;;;;;;;;5106793;27;20058;-45
2023/04/22 00:57:46;;;;;;;1.60;0.30;;;;;;;;;;5098937;27;20148;-48
2023/04/22 01:00:15;;;;;;;1.20;0.30;;;;;;;;;;5113279;27;20084;-46
2023/04/22 01:02:43;;;;;;;1.17;0.20;;;;;;;;;;5108471;27;20539;-46
2023/04/22 01:05:11;;;;;;;1.13;0.20;;;;;;;;;;5081823;28;20032;-44
2023/04/22 01:07:39;;;;;;;3.43;0.20;;;;;;;;;;5095791;27;20728;-45
2023/04/22 01:10:08;;;;;;;1.13;0.57;;;;;;;;;;5108723;27;20075;-44
2023/04/22 01:12:36;;;;;;;0.90;0.20;;;;;;;;;;5109110;27;20059;-45
2023/04/22 01:15:04;;;;;;;2.17;0.75;;;;;;;;;;5113010;27;20035;-44
2023/04/22 01:17:34;;;;;;;3.40;0.40;;;;;;;;;;5116655;27;20035;-45
2023/04/22 01:20:03;;;;;;;1.10;0.20;;;;;;;;;;5109907;27;20067;-45
2023/04/22 01:22:35;;;;;;;0.70;0.10;;;;;;;;;;5109142;27;20039;-45
2023/04/22 01:25:04;;;;;;;0.90;0.10;;;;;;;;;;5101735;27;20738;-50
2023/04/22 01:27:32;;;;;;;1.50;0.60;;;;;;;;;;5115962;27;20058;-47
2023/04/22 01:30:00;;;;;;;1.45;0.35;;;;;;;;;;5108196;27;20074;-47
2023/04/22 01:32:29;;;;;;;3.00;0.20;;;;;;;;;;5093997;27;20135;-45
2023/04/22 01:34:57;;;;;;;2.25;0.68;;;;;;;;;;5109761;27;20445;-47
2023/04/22 01:37:25;;;;;;;1.20;0.45;;;;;;;;;;5093603;27;20044;-44
2023/04/22 01:39:53;;;;;;;0.70;0.10;;;;;;;;;;5089295;27;20130;-45
2023/04/22 01:42:22;;;;;;;0.82;0.10;;;;;;;;;;5089652;27;20162;-46
2023/04/22 01:44:50;;;;;;;0.93;0.17;;;;;;;;;;5104721;27;20062;-45
2023/04/22 01:47:17;;;;;;;2.35;0.75;;;;;;;;;;5103275;27;20521;-48
2023/04/22 01:49:45;;;;;;;1.15;0.20;;;;;;;;;;5099304;27;20045;-47
2023/04/22 01:52:13;;;;;;;0.70;0.10;;;;;;;;;;5099444;27;20035;-44
2023/04/22 01:54:41;;;;;;;1.00;0.10;;;;;;;;;;5100284;27;20043;-45
2023/04/22 01:57:10;;;;;;;1.00;0.30;;;;;;;;;;5099868;27;20132;-46
2023/04/22 01:59:39;;;;;;;0.68;0.10;;;;;;;;;;5106988;27;20056;-45
2023/04/22 02:02:07;;;;;;;2.08;0.25;;;;;;;;;;5109357;27;20034;-45
2023/04/22 02:04:35;;;;;;;0.88;0.20;;;;;;;;;;5106293;27;20121;-44
2023/04/22 02:07:03;;;;;;;1.80;0.38;;;;;;;;;;5105039;27;20371;-45
2023/04/22 02:09:31;;;;;;;0.90;0.10;;;;;;;;;;5114729;27;20047;-46
2023/04/22 02:12:00;;;;;;;0.85;0.15;;;;;;;;;;5087868;27;20479;-45
2023/04/22 02:14:27;;;;;;;0.73;0.13;;;;;;;;;;5104790;27;20039;-45
2023/04/22 02:16:57;;;;;;;1.35;0.22;;;;;;;;;;5103116;27;20115;-46
2023/04/22 02:19:24;;;;;;;2.20;0.30;;;;;;;;;;5098533;27;20043;-45
2023/04/22 02:21:52;;;;;;;1.43;0.30;;;;;;;;;;5104042;27;20453;-45
2023/04/22 02:24:20;;;;;;;1.02;0.45;;;;;;;;;;5102633;27;20672;-45
2023/04/22 02:26:48;;;;;;;1.33;0.35;;;;;;;;;;5119761;27;20044;-45
2023/04/22 02:29:16;;;;;;;1.95;0.30;;;;;;;;;;5115013;27;20114;-47
2023/04/22 02:31:43;;;;;;;0.70;0.10;;;;;;;;;;5119492;27;20169;-45
2023/04/22 02:34:13;;;;;;;0.83;0.17;;;;;;;;;;5111398;27;20089;-44
2023/04/22 02:36:40;;;;;;;0.80;0.10;;;;;;;;;;5105644;27;20463;-49
2023/04/22 02:39:08;;;;;;;0.75;0.10;;;;;;;;;;5107088;27;20563;-45
2023/04/22 02:41:36;;;;;;;0.90;0.10;;;;;;;;;;5091045;27;20062;-46
2023/04/22 02:44:04;;;;;;;0.85;0.10;;;;;;;;;;5096236;27;20126;-48
2023/04/22 02:46:31;;;;;;;1.30;0.10;;;;;;;;;;5099433;27;20089;-45
2023/04/22 02:48:59;;;;;;;0.70;0.10;;;;;;;;;;5082038;28;20331;-45
2023/04/22 02:51:28;;;;;;;1.58;0.30;;;;;;;;;;5097502;27;20147;-46
2023/04/22 02:53:56;;;;;;;0.70;0.10;;;;;;;;;;5104881;27;20118;-47
2023/04/22 02:56:24;;;;;;;1.13;0.20;;;;;;;;;;5107618;27;20063;-48
2023/04/22 02:58:52;;;;;;;0.97;0.30;;;;;;;;;;5099586;27;20092;-48
2023/04/22 03:01:20;;;;;;;0.60;0.10;;;;;;;;;;5111260;27;20081;-45
2023/04/22 03:03:47;;;;;;;0.98;0.30;;;;;;;;;;5110692;27;20028;-46
2023/04/22 03:06:16;;;;;;;0.70;0.10;;;;;;;;;;5105636;27;20035;-45
2023/04/22 03:08:46;;;;;;;0.73;0.10;;;;;;;;;;5113065;27;20481;-45
2023/04/22 03:11:15;;;;;;;0.60;0.10;;;;;;;;;;5102199;27;20048;-45
2023/04/22 03:13:43;;;;;;;0.73;0.10;;;;;;;;;;5104540;27;20497;-44
2023/04/22 03:16:11;;;;;;;0.75;0.20;;;;;;;;;;5118176;27;20031;-44
2023/04/22 03:18:38;;;;;;;0.60;0.10;;;;;;;;;;5089229;27;20712;-45
2023/04/22 03:21:07;;;;;;;0.57;0.10;;;;;;;;;;5101592;27;20067;-49
2023/04/22 03:23:35;;;;;;;0.70;0.20;;;;;;;;;;5085423;27;20074;-44
2023/04/22 03:26:05;;;;;;;1.10;0.30;;;;;;;;;;5101020;27;20051;-46
2023/04/22 03:28:32;;;;;;;0.93;0.20;;;;;;;;;;5098637;28;20040;-46
2023/04/22 03:31:00;;;;;;;1.02;0.17;;;;;;;;;;5089007;27;20123;-45
2023/04/22 03:33:28;;;;;;;0.90;0.10;;;;;;;;;;5096290;27;20068;-44
2023/04/22 03:35:55;;;;;;;0.67;0.10;;;;;;;;;;5099422;27;20142;-46
2023/04/22 03:38:23;;;;;;;0.90;0.20;;;;;;;;;;5106041;27;20046;-44
2023/04/22 03:40:50;;;;;;;1.60;0.30;;;;;;;;;;5100041;27;20499;-47
2023/04/22 03:43:19;;;;;;;0.80;0.10;;;;;;;;;;5096769;27;20068;-44
2023/04/22 03:45:47;;;;;;;0.85;0.15;;;;;;;;;;5097491;27;20059;-45
2023/04/22 03:48:15;;;;;;;0.70;0.10;;;;;;;;;;5103156;27;20260;-45
2023/04/22 03:50:42;;;;;;;1.15;0.20;;;;;;;;;;5107330;27;20557;-44
2023/04/22 03:53:10;;;;;;;1.30;0.30;;;;;;;;;;5083135;28;20518;-45
2023/04/22 03:55:38;;;;;;;2.08;0.20;;;;;;;;;;5110983;27;20071;-44
2023/04/22 03:58:08;;;;;;;0.82;0.10;;;;;;;;;;5095561;27;20031;-46
2023/04/22 04:00:37;;;;;;;1.00;0.20;;;;;;;;;;5094701;27;20412;-46
2023/04/22 04:03:05;;;;;;;1.15;0.30;;;;;;;;;;5097204;27;20051;-44
2023/04/22 04:05:33;;;;;;;0.65;0.10;;;;;;;;;;5101970;27;20066;-46
2023/04/22 04:08:01;;;;;;;1.35;0.25;;;;;;;;;;5111557;27;20066;-45
2023/04/22 04:10:29;;;;;;;1.15;0.30;;;;;;;;;;5110739;27;20139;-46
2023/04/22 04:12:56;;;;;;;1.77;0.30;;;;;;;;;;5112109;27;20070;-45
2023/04/22 04:15:26;;;;;;;0.82;0.10;;;;;;;;;;5099174;27;20926;-44
2023/04/22 04:17:55;;;;;;;0.70;0.15;;;;;;;;;;5097411;27;20126;-48
2023/04/22 04:20:23;;;;;;;1.35;0.40;;;;;;;;;;5097521;27;20488;-44
2023/04/22 04:22:51;;;;;;;1.55;0.30;;;;;;;;;;5115952;27;20042;-48
2023/04/22 04:25:20;;;;;;;0.70;0.10;;;;;;;;;;5098727;27;20334;-47
2023/04/22 04:27:49;;;;;;;0.63;0.10;;;;;;;;;;5108559;27;20488;-46
2023/04/22 04:30:16;;;;;;;1.20;0.32;;;;;;;;;;5103333;27;20131;-46
2023/04/22 04:32:44;;;;;;;0.80;0.10;;;;;;;;;;5106089;27;20127;-47
2023/04/22 04:35:14;;;;;;;0.95;0.17;;;;;;;;;;5097265;27;20050;-48
2023/04/22 04:37:42;;;;;;;0.93;0.20;;;;;;;;;;5114057;27;20046;-47
2023/04/22 04:40:12;;;;;;;0.90;0.20;;;;;;;;;;5099327;27;20131;-48
2023/04/22 04:42:41;;;;;;;0.95;0.22;;;;;;;;;;5106587;27;20074;-46
2023/04/22 04:45:09;;;;;;;1.00;0.30;;;;;;;;;;5093659;27;20031;-46
2023/04/22 04:47:37;;;;;;;0.77;0.10;;;;;;;;;;5094855;27;20047;-48
2023/04/22 04:50:05;;;;;;;1.20;0.20;;;;;;;;;;5102619;27;20055;-46
2023/04/22 04:52:34;;;;;;;2.40;0.32;;;;;;;;;;5095534;27;20505;-50
2023/04/22 04:55:02;;;;;;;1.35;0.43;;;;;;;;;;5097807;27;20093;-47
2023/04/22 04:57:29;;;;;;;1.55;0.30;;;;;;;;;;5092672;27;20108;-47
2023/04/22 04:59:57;;;;;;;0.60;0.10;;;;;;;;;;5098740;27;20063;-47
2023/04/22 05:02:27;;;;;;;1.10;0.20;;;;;;;;;;5102933;27;20051;-45
2023/04/22 05:04:55;;;;;;;0.52;0.10;;;;;;;;;;5108936;27;20607;-46
2023/04/22 05:07:23;;;;;;;0.90;0.30;;;;;;;;;;5101326;27;20044;-46
2023/04/22 05:09:52;;;;;;;1.60;0.60;;;;;;;;;;5101735;27;20708;-46
2023/04/22 05:12:20;;;;;;;1.13;0.40;;;;;;;;;;5097639;28;21322;-46
2023/04/22 05:14:47;;;;;;;0.83;0.30;;;;;;;;;;5097646;27;20066;-46
2023/04/22 05:17:15;;;;;;;0.80;0.10;;;;;;;;;;5117285;27;20447;-45
2023/04/22 05:19:43;;;;;;;0.80;0.10;;;;;;;;;;5110674;27;20390;-46
2023/04/22 05:22:11;;;;;;;1.77;0.50;;;;;;;;;;5105423;27;20126;-47
2023/04/22 05:24:39;;;;;;;1.73;0.28;;;;;;;;;;5102782;27;20146;-46
2023/04/22 05:27:08;;;;;;;0.90;0.20;;;;;;;;;;5101429;28;20048;-47
2023/04/22 05:29:36;;;;;;;0.90;0.13;;;;;;;;;;5116799;27;20051;-46
2023/04/22 05:32:04;;;;;;;0.93;0.30;;;;;;;;;;5097785;27;20055;-46
2023/04/22 05:34:33;;;;;;;1.10;0.17;;;;;;;;;;5108942;27;20530;-46
2023/04/22 05:37:00;;;;;;;0.50;0.10;;;;;;;;;;5097138;27;20576;-46
2023/04/22 05:39:28;;;;;;;1.30;0.50;;;;;;;;;;5105884;28;20577;-47
2023/04/22 05:41:55;;;;;;;0.90;0.20;;;;;;;;;;5103173;27;20046;-47
2023/04/22 05:44:24;;;;;;;0.80;0.10;;;;;;;;;;5108659;27;20036;-46
2023/04/22 05:46:52;;;;;;;0.73;0.10;;;;;;;;;;5106653;27;20093;-45
2023/04/22 05:49:20;;;;;;;0.80;0.10;;;;;;;;;;5103661;27;20035;-44
2023/04/22 05:51:48;;;;;;;3.50;0.23;;;;;;;;;;5105324;27;20114;-45
2023/04/22 05:54:15;;;;;;;1.02;0.20;;;;;;;;;;5104840;27;20043;-44
2023/04/22 05:56:43;;;;;;;1.33;0.43;;;;;;;;;;5119811;27;20091;-44
2023/04/22 05:59:11;;;;;;;1.13;0.30;;;;;;;;;;5103238;27;20367;-46
2023/04/22 06:01:41;;;;;;;0.82;0.10;;;;;;;;;;5109640;27;20043;-45
2023/04/22 06:04:10;;;;;;;0.60;0.10;;;;;;;;;;5108019;27;20364;-45
2023/04/22 06:06:38;;;;;;;1.30;0.30;;;;;;;;;;5104017;27;20473;-45
2023/04/22 06:09:06;;;;;;;0.80;0.10;;;;;;;;;;5101810;27;20075;-45
2023/04/22 06:11:33;;;;;;;1.00;0.50;;;;;;;;;;5097036;27;20085;-48
2023/04/22 06:14:01;;;;;;;0.70;0.10;;;;;;;;;;5108708;27;20062;-46
2023/04/22 06:16:29;;;;;;;0.93;0.17;;;;;;;;;;5108672;27;20115;-47
2023/04/22 06:18:58;;;;;;;2.45;0.20;;;;;;;;;;5111028;27;20378;-48
2023/04/22 06:21:26;;;;;;;1.20;0.28;;;;;;;;;;5086297;27;20031;-45
2023/04/22 06:23:54;;;;;;;0.90;0.10;;;;;;;;;;5102405;27;20554;-45
2023/04/22 06:26:22;;;;;;;0.55;0.10;;;;;;;;;;5110684;27;20142;-46
2023/04/22 06:28:50;;;;;;;0.70;0.10;;;;;;;;;;5103448;27;20078;-45
2023/04/22 06:31:18;;;;;;;0.47;0.10;;;;;;;;;;5096042;27;20038;-45
2023/04/22 06:33:47;;;;;;;1.02;0.10;;;;;;;;;;5112762;27;20609;-47
2023/04/22 06:36:16;;;;;;;1.33;0.30;;;;;;;;;;5108242;27;20383;-44
2023/04/22 06:38:44;;;;;;;1.63;0.38;;;;;;;;;;5110678;27;20032;-48
2023/04/22 06:41:11;;;;;;;0.93;0.23;;;;;;;;;;5106594;27;20039;-45
2023/04/22 06:43:39;;;;;;;1.27;0.30;;;;;;;;;;5111704;27;20126;-45
2023/04/22 06:46:07;;;;;;;1.23;0.20;;;;;;;;;;5110723;27;20044;-44
2023/04/22 06:48:34;;;;;;;0.80;0.10;;;;;;;;;;5089539;27;20039;-45
2023/04/22 06:51:02;;;;;;;1.13;0.20;;;;;;;;;;5105593;27;20100;-45
2023/04/22 06:53:31;;;;;;;0.70;0.10;;;;;;;;;;5099190;27;20046;-44
2023/04/22 06:55:59;;;;;;;0.80;0.10;;;;;;;;;;5112012;27;20039;-46
2023/04/22 06:58:27;;;;;;;0.90;0.10;;;;;;;;;;5099541;27;20463;-47
2023/04/22 07:00:54;;;;;;;1.25;0.20;;;;;;;;;;5100247;27;20088;-56
2023/04/22 07:03:22;;;;;;;0.73;0.10;;;;;;;;;;5094626;27;20190;-45
2023/04/22 07:05:50;;;;;;;0.63;0.10;;;;;;;;;;5106162;27;20485;-48
2023/04/22 07:08:18;;;;;;;0.90;0.10;;;;;;;;;;5110155;27;20032;-45
2023/04/22 07:10:47;;;;;;;0.70;0.10;;;;;;;;;;5103387;27;20510;-46
2023/04/22 07:13:15;;;;;;;0.80;0.20;;;;;;;;;;5106189;27;20052;-45
2023/04/22 07:15:45;;;;;;;0.80;0.30;;;;;;;;;;5106788;27;20037;-45
2023/04/22 07:18:12;;;;;;;0.60;0.10;;;;;;;;;;5100430;27;20039;-46
2023/04/22 07:20:40;;;;;;;0.88;0.22;;;;;;;;;;5108898;27;20044;-46
2023/04/22 07:23:09;;;;;;;0.73;0.10;;;;;;;;;;5113583;27;20110;-45
2023/04/22 07:25:37;;;;;;;0.80;0.15;;;;;;;;;;5101570;27;20036;-45
2023/04/22 07:28:06;;;;;;;1.75;0.40;;;;;;;;;;5114009;27;20035;-46
2023/04/22 07:30:34;;;;;;;0.87;0.20;;;;;;;;;;5111801;27;20055;-45
2023/04/22 07:33:01;;;;;;;1.15;0.25;;;;;;;;;;5107825;27;20039;-46
2023/04/22 07:35:30;;;;;;;1.25;0.35;;;;;;;;;;5096055;27;20046;-44
2023/04/22 07:37:57;;;;;;;0.60;0.10;;;;;;;;;;5099052;27;20068;-45
2023/04/22 07:40:25;;;;;;;1.30;0.20;;;;;;;;;;5098454;27;20054;-45
2023/04/22 07:42:53;;;;;;;1.30;0.60;;;;;;;;;;5105094;27;20118;-45
2023/04/22 07:45:22;;;;;;;1.65;0.68;;;;;;;;;;5098364;27;20094;-46
2023/04/22 07:47:49;;;;;;;1.20;0.55;;;;;;;;;;5098122;27;20039;-44
2023/04/22 07:50:17;;;;;;;1.00;0.20;;;;;;;;;;5091023;28;20040;-45
2023/04/22 07:52:45;;;;;;;2.03;0.55;;;;;;;;;;5097146;27;20509;-44
2023/04/22 07:55:13;;;;;;;1.00;0.20;;;;;;;;;;5097366;27;20045;-44
2023/04/22 07:57:40;;;;;;;0.93;0.20;;;;;;;;;;5099579;27;20035;-44
2023/04/22 08:00:09;;;;;;;1.10;0.20;;;;;;;;;;5106597;27;20036;-45
2023/04/22 08:02:38;;;;;;;0.80;0.10;;;;;;;;;;5105382;27;20076;-44
2023/04/22 08:05:10;;;;;;;1.35;0.25;;;;;;;;;;5109703;27;20866;-46
2023/04/22 08:07:38;;;;;;;3.53;0.70;;;;;;;;;;5100179;27;20035;-47
2023/04/22 08:10:06;;;;;;;1.00;0.20;;;;;;;;;;5094137;27;20077;-45
2023/04/22 08:12:34;;;;;;;1.00;0.20;;;;;;;;;;5094756;27;20119;-46
2023/04/22 08:15:02;;;;;;;1.13;0.15;;;;;;;;;;5100802;27;20101;-47
2023/04/22 08:17:30;;;;;;;0.82;0.13;;;;;;;;;;5105941;27;20123;-44
2023/04/22 08:19:59;;;;;;;7.00;0.97;;;;;;;;;;5093892;27;20447;-43
2023/04/22 08:22:26;;;;;;;2.13;1.17;;;;;;;;;;5106808;27;20042;-44
2023/04/22 08:24:54;;;;;;;1.40;0.30;;;;;;;;;;5098391;27;20056;-45
2023/04/22 08:27:22;;;;;;;1.60;0.40;;;;;;;;;;5079429;27;20845;-45
2023/04/22 08:29:50;;;;;;;1.50;0.45;;;;;;;;;;5117705;27;20089;-44
2023/04/22 08:32:18;;;;;;;1.23;0.30;;;;;;;;;;5106750;27;20067;-45
2023/04/22 08:34:46;;;;;;;1.58;0.30;;;;;;;;;;5110140;27;20043;-47
2023/04/22 08:37:18;;;;;;;1.73;0.43;;;;;;;;;;5110877;27;20100;-45
2023/04/22 08:39:45;;;;;;;1.90;0.40;;;;;;;;;;5102690;27;20075;-43
2023/04/22 08:42:14;;;;;;;1.95;0.77;;;;;;;;;;5098887;27;20073;-48
2023/04/22 08:44:44;;;;;;;2.87;0.60;;;;;;;;;;5113743;27;20057;-45
2023/04/22 08:47:13;;;;;;;2.05;0.50;;;;;;;;;;5109069;27;20064;-44
2023/04/22 08:49:41;;;;;;;1.20;0.17;;;;;;;;;;5109403;27;20039;-46
2023/04/22 08:52:11;;;;;;;1.27;0.30;;;;;;;;;;5094357;27;20075;-44
2023/04/22 08:54:40;;;;;;;1.58;0.40;;;;;;;;;;5097443;27;20047;-45
2023/04/22 08:57:09;;;;;;;1.43;0.40;;;;;;;;;;5097027;27;20063;-44
2023/04/22 08:59:37;;;;;;;4.07;0.30;;;;;;;;;;5100553;27;20052;-44
2023/04/22 09:02:07;;;;;;;1.25;0.20;;;;;;;;;;5109579;27;20145;-43
2023/04/22 09:04:35;;;;;;;1.73;0.32;;;;;;;;;;5109824;27;20168;-44
2023/04/22 09:07:03;;;;;;;1.83;1.00;;;;;;;;;;5108036;27;20040;-43
2023/04/22 09:09:31;;;;;;;2.03;0.63;;;;;;;;;;5094047;27;20039;-47
2023/04/22 09:12:01;;;;;;;2.20;0.77;;;;;;;;;;5097531;28;20438;-43
2023/04/22 09:14:29;;;;;;;2.10;0.75;;;;;;;;;;5106897;27;20775;-47
2023/04/22 09:16:58;;;;;;;3.45;0.40;;;;;;;;;;5110809;27;20122;-46
2023/04/22 09:19:25;;;;;;;3.25;0.85;;;;;;;;;;5101232;27;20561;-45
2023/04/22 09:21:53;;;;;;;1.90;0.57;;;;;;;;;;5100143;28;20036;-48
2023/04/22 09:24:21;;;;;;;2.78;1.05;;;;;;;;;;5082653;28;20040;-45
2023/04/22 09:26:49;;;;;;;2.85;0.57;;;;;;;;;;5100557;28;20067;-45
2023/04/22 09:29:18;;;;;;;2.10;0.47;;;;;;;;;;5110795;27;20116;-44
2023/04/22 09:31:48;;;;;;;5.03;1.25;;;;;;;;;;5112540;27;20565;-47
2023/04/22 09:34:17;;;;;;;2.93;0.47;;;;;;;;;;5107976;27;20129;-44
2023/04/22 09:36:45;;;;;;;2.45;1.13;;;;;;;;;;5116203;27;20043;-44
2023/04/22 09:39:13;;;;;;;1.95;0.80;;;;;;;;;;5097932;27;20036;-46
2023/04/22 09:41:41;;;;;;;2.75;0.85;;;;;;;;;;5097236;27;20059;-45
2023/04/22 09:44:10;;;;;;;2.25;0.60;;;;;;;;;;5116238;27;20217;-45
2023/04/22 09:46:41;;;;;;;2.53;0.87;;;;;;;;;;5102153;27;20403;-46
2023/04/22 09:49:09;;;;;;;2.45;1.02;;;;;;;;;;5091451;27;20066;-46
2023/04/22 09:51:40;;;;;;;2.97;0.68;;;;;;;;;;5107138;27;20035;-45
2023/04/22 09:54:09;;;;;;;2.47;0.50;;;;;;;;;;5100474;27;20558;-45
2023/04/22 09:56:41;;;;;;;4.20;1.05;;;;;;;;;;5102194;27;20104;-45
2023/04/22 09:59:09;;;;;;;2.33;0.60;;;;;;;;;;5111294;27;20110;-45
2023/04/22 10:01:39;;;;;;;1.90;0.57;;;;;;;;;;5101450;27;20052;-45
2023/04/22 10:04:08;;;;;;;1.63;0.47;;;;;;;;;;5111749;27;20139;-45
2023/04/22 10:06:37;;;;;;;1.88;0.73;;;;;;;;;;5106577;27;20566;-44
2023/04/22 10:09:05;;;;;;;3.08;0.77;;;;;;;;;;5101002;27;20523;-45
2023/04/22 10:11:36;;;;;;;1.70;0.40;;;;;;;;;;5109850;27;20032;-44
2023/04/22 10:14:04;;;;;;;1.95;0.63;;;;;;;;;;5106657;27;20036;-45
2023/04/22 10:16:32;;;;;;;1.63;0.40;;;;;;;;;;5112326;27;20225;-44
2023/04/22 10:19:02;;;;;;;3.50;1.30;;;;;;;;;;5116340;27;20116;-45
2023/04/22 10:21:32;;;;;;;2.03;0.70;;;;;;;;;;5100997;27;20557;-44
2023/04/22 10:24:00;;;;;;;2.90;0.57;;;;;;;;;;5099229;27;20127;-45
2023/04/22 10:26:41;;;;;;;3.33;0.63;;;;;;;;;;5104063;27;20123;-47
2023/04/22 10:29:09;;;;;;;3.75;0.50;;;;;;;;;;5106445;27;20118;-45
2023/04/22 10:31:38;;;;;;;4.10;1.30;;;;;;;;;;5105512;27;20057;-48
2023/04/22 10:34:10;;;;;;;2.78;0.65;;;;;;;;;;5108438;27;20449;-47
2023/04/22 10:36:53;;;;;;;2.00;0.57;;;;;;;;;;5113149;27;20644;-45
2023/04/22 10:39:22;;;;;;;3.55;1.15;;;;;;;;;;5098051;27;20043;-46
2023/04/22 10:41:52;;;;;;;2.53;0.93;;;;;;;;;;5095991;27;20432;-46
2023/04/22 10:44:20;;;;;;;3.72;0.60;;;;;;;;;;5105875;27;20067;-44
2023/04/22 10:46:58;;;;;;;1.88;0.50;;;;;;;;;;5104454;27;20126;-49
2023/04/22 10:49:29;;;;;;;2.40;0.50;;;;;;;;;;5101568;27;20043;-45
2023/04/22 10:51:58;;;;;;;3.03;0.50;;;;;;;;;;5104552;27;20042;-44
2023/04/22 10:54:45;;;;;;;1.65;0.47;;;;;;;;;;5104846;27;20102;-46
2023/04/22 10:57:21;;;;;;;2.65;0.85;;;;;;;;;;5100675;27;20032;-45
2023/04/22 10:59:51;;;;;;;1.88;0.30;;;;;;;;;;5119607;27;20515;-44
2023/04/22 11:02:20;;;;;;;2.20;0.97;;;;;;;;;;5098833;27;20059;-45
2023/04/22 11:04:48;;;;;;;2.00;0.50;;;;;;;;;;5107678;27;20054;-45
2023/04/22 11:07:30;;;;;;;2.90;0.70;;;;;;;;;;5108116;27;20396;-45
2023/04/22 11:09:59;;;;;;;2.08;0.32;;;;;;;;;;5100066;27;20040;-45
2023/04/22 11:12:44;;;;;;;3.95;0.88;;;;;;;;;;5081050;28;20045;-46
2023/04/22 11:15:13;;;;;;;3.60;1.00;;;;;;;;;;5100509;27;20100;-46
2023/04/22 11:17:42;;;;;;;3.22;0.47;;;;;;;;;;5096385;27;20040;-44
2023/04/22 11:20:11;;;;;;;3.38;0.75;;;;;;;;;;5110489;27;20050;-47
2023/04/22 11:22:43;;;;;;;3.17;1.00;;;;;;;;;;5100540;27;20085;-44
2023/04/22 11:25:10;;;;;;;4.10;0.98;;;;;;;;;;5117562;27;20500;-46
2023/04/22 11:27:38;;;;;;;2.80;0.90;;;;;;;;;;5098042;27;20549;-46
2023/04/22 11:30:10;;;;;;;2.00;0.55;;;;;;;;;;5107658;27;20062;-44
2023/04/22 11:32:41;;;;;;;2.95;0.85;;;;;;;;;;5103016;27;20059;-44
2023/04/22 11:35:09;;;;;;;3.15;0.55;;;;;;;;;;5103283;27;20039;-44
2023/04/22 11:37:40;;;;;;;2.70;0.73;;;;;;;;;;5106791;27;20583;-44
2023/04/22 11:40:09;;;;;;;1.40;0.30;;;;;;;;;;5092976;27;20062;-47
2023/04/22 11:42:56;;;;;;;2.05;0.55;;;;;;;;;;5096170;27;20036;-49
2023/04/22 11:45:25;;;;;;;3.08;0.70;;;;;;;;;;5113071;27;20058;-46
2023/04/22 11:47:53;;;;;;;1.92;0.70;;;;;;;;;;5096011;27;20082;-47
2023/04/22 11:50:23;;;;;;;2.10;0.50;;;;;;;;;;5101371;27;20071;-44
2023/04/22 11:52:51;;;;;;;4.10;1.03;;;;;;;;;;5104056;27;20049;-45
2023/04/22 11:55:20;;;;;;;1.20;0.20;;;;;;;;;;5096091;27;20660;-45
2023/04/22 11:57:52;;;;;;;2.08;0.57;;;;;;;;;;5100243;27;20049;-49
2023/04/22 12:00:20;;;;;;;4.95;0.95;;;;;;;;;;5101348;27;20043;-44
2023/04/22 12:02:58;;;;;;;2.30;0.30;;;;;;;;;;5109330;27;20135;-46
2023/04/22 12:05:35;;;;;;;3.23;0.60;;;;;;;;;;5100925;27;20031;-44
2023/04/22 12:08:04;;;;;;;1.10;0.20;;;;;;;;;;5103968;27;20036;-46
2023/04/22 12:10:31;;;;;;;2.55;0.65;;;;;;;;;;5109317;27;20492;-46
2023/04/22 12:13:00;;;;;;;2.55;0.65;;;;;;;;;;5108540;27;20070;-45
2023/04/22 12:15:36;;;;;;;3.15;1.13;;;;;;;;;;5110400;27;20046;-48
2023/04/22 12:18:07;;;;;;;2.93;0.73;;;;;;;;;;5095118;27;20148;-45
2023/04/22 12:20:35;;;;;;;2.05;0.43;;;;;;;;;;5101199;27;20028;-46
2023/04/22 12:23:03;;;;;;;3.35;1.15;;;;;;;;;;5106486;27;20027;-48
2023/04/22 12:25:32;;;;;;;4.32;0.98;;;;;;;;;;5090577;28;20591;-45
2023/04/22 12:28:01;;;;;;;2.03;0.60;;;;;;;;;;5077765;28;20039;-44
2023/04/22 12:30:29;;;;;;;2.33;0.60;;;;;;;;;;5074007;28;20071;-45
2023/04/22 12:32:56;;;;;;;4.45;1.33;;;;;;;;;;5094355;28;20056;-46
2023/04/22 12:35:26;;;;;;;4.40;0.73;;;;;;;;;;5082201;28;20523;-46
2023/04/22 12:37:53;;;;;;;3.70;0.60;;;;;;;;;;5085712;28;20118;-48
2023/04/22 12:40:21;;;;;;;3.90;0.82;;;;;;;;;;5074671;28;20046;-46
2023/04/22 12:42:49;;;;;;;3.07;1.47;;;;;;;;;;5078443;28;20079;-45
2023/04/22 12:45:17;;;;;;;3.20;0.70;;;;;;;;;;5074648;28;20044;-47
2023/04/22 12:47:45;;;;;;;3.35;1.15;;;;;;;;;;5075077;28;20150;-45
2023/04/22 12:50:13;;;;;;;2.13;0.52;;;;;;;;;;5075293;28;20496;-45
2023/04/22 12:52:42;;;;;;;4.00;0.68;;;;;;;;;;5082557;28;20127;-45
2023/04/22 12:55:10;;;;;;;2.27;0.40;;;;;;;;;;5089984;28;20493;-45
2023/04/22 12:57:39;;;;;;;3.25;0.70;;;;;;;;;;5077747;28;20082;-47
2023/04/22 13:00:13;;;;;;;3.53;1.58;;;;;;;;;;5073605;28;20068;-49
2023/04/22 13:02:41;;;;;;;3.55;0.80;;;;;;;;;;5077335;28;20473;-45
2023/04/22 13:05:09;;;;;;;4.10;1.50;;;;;;;;;;5085582;28;20519;-44
2023/04/22 13:07:37;;;;;;;3.50;1.40;;;;;;;;;;5079818;28;20078;-46
2023/04/22 13:10:07;;;;;;;3.00;1.10;;;;;;;;;;5074599;28;20396;-45
2023/04/22 13:12:35;;;;;;;3.20;0.88;;;;;;;;;;5085820;28;20072;-45
2023/04/22 13:15:05;;;;;;;2.95;0.77;;;;;;;;;;5079517;28;20046;-47
2023/04/22 13:17:33;;;;;;;2.80;0.88;;;;;;;;;;5077901;28;20058;-46
2023/04/22 13:20:01;;;;;;;3.57;1.07;;;;;;;;;;5088000;28;20044;-46
2023/04/22 13:22:28;;;;;;;2.67;0.80;;;;;;;;;;5074713;28;20040;-47
2023/04/22 13:24:56;;;;;;;4.43;1.42;;;;;;;;;;5101768;28;20050;-46
2023/04/22 13:27:25;;;;;;;2.95;0.80;;;;;;;;;;5100718;27;20074;-46
2023/04/22 13:29:52;;;;;;;3.25;0.93;;;;;;;;;;5116822;27;20118;-45
2023/04/22 13:32:20;;;;;;;4.57;0.83;;;;;;;;;;5081320;28;20543;-47
2023/04/22 13:34:48;;;;;;;6.72;1.77;;;;;;;;;;5104789;27;20040;-45
2023/04/22 13:37:18;;;;;;;4.80;1.27;;;;;;;;;;5095495;27;20400;-45
2023/04/22 13:39:46;;;;;;;3.85;0.93;;;;;;;;;;5090101;27;20067;-45
2023/04/22 13:42:13;;;;;;;2.80;0.60;;;;;;;;;;5112079;27;20129;-48
2023/04/22 13:44:42;;;;;;;3.53;0.80;;;;;;;;;;5103242;27;20059;-49
2023/04/22 13:47:10;;;;;;;3.25;1.20;;;;;;;;;;5106170;27;20042;-46
2023/04/22 13:49:38;;;;;;;3.65;1.10;;;;;;;;;;5093033;27;20123;-46
2023/04/22 13:52:06;;;;;;;5.18;1.27;;;;;;;;;;5102436;27;20044;-46
2023/04/22 13:54:33;;;;;;;3.72;0.60;;;;;;;;;;5082425;28;20543;-45
2023/04/22 13:57:02;;;;;;;2.80;0.70;;;;;;;;;;5095525;27;20404;-46
2023/04/22 13:59:30;;;;;;;3.60;1.25;;;;;;;;;;5101844;27;20061;-47
2023/04/22 14:01:59;;;;;;;3.92;1.25;;;;;;;;;;5115705;27;20141;-45
2023/04/22 14:04:28;;;;;;;3.92;0.95;;;;;;;;;;5100359;27;20106;-45
2023/04/22 14:06:55;;;;;;;5.32;1.20;;;;;;;;;;5096839;27;20077;-45
2023/04/22 14:09:23;;;;;;;3.30;0.90;;;;;;;;;;5108540;27;20039;-45
2023/04/22 14:11:51;;;;;;;3.55;0.63;;;;;;;;;;5095671;27;20388;-48
2023/04/22 14:14:18;;;;;;;3.85;0.75;;;;;;;;;;5088087;27;20419;-46
2023/04/22 14:16:46;;;;;;;4.25;0.60;;;;;;;;;;5099398;27;20043;-47
2023/04/22 14:19:15;;;;;;;5.45;0.82;;;;;;;;;;5100731;27;20135;-46
2023/04/22 14:21:43;;;;;;;3.00;0.87;;;;;;;;;;5111446;27;20746;-45
2023/04/22 14:24:11;;;;;;;2.72;0.60;;;;;;;;;;5118461;27;20027;-48
2023/04/22 14:26:38;;;;;;;3.10;0.60;;;;;;;;;;5106631;27;20616;-45
2023/04/22 14:29:06;;;;;;;1.80;0.40;;;;;;;;;;5115653;27;20027;-45
2023/04/22 14:31:34;;;;;;;4.68;1.15;;;;;;;;;;5109080;27;20027;-46
2023/04/22 14:34:01;;;;;;;2.27;0.67;;;;;;;;;;5114446;27;20067;-47
2023/04/22 14:36:30;;;;;;;4.15;1.05;;;;;;;;;;5096117;27;20524;-48
2023/04/22 14:38:58;;;;;;;2.85;0.73;;;;;;;;;;5086624;28;20031;-46
2023/04/22 14:41:26;;;;;;;2.03;0.50;;;;;;;;;;5114337;27;20533;-46
2023/04/22 14:43:54;;;;;;;2.38;0.70;;;;;;;;;;5104149;27;20067;-48
2023/04/22 14:46:22;;;;;;;4.33;0.70;;;;;;;;;;5109754;27;20569;-46
2023/04/22 14:48:49;;;;;;;3.92;0.70;;;;;;;;;;5100027;27;20524;-47
2023/04/22 14:51:17;;;;;;;2.95;0.80;;;;;;;;;;5096155;27;20550;-46